createdAt,value
2018-07-07T00:00:22.497Z,22.10
2018-07-07T00:01:22.473Z,25.00
2018-07-07T00:02:22.449Z,21.30
2018-07-07T00:03:22.422Z,26.90
2018-07-07T00:04:22.400Z,27.00
2018-07-07T00:05:22.370Z,23.80
2018-07-07T00:06:22.344Z,24.30
2018-07-07T00:07:22.319Z,23.60
2018-07-07T00:08:22.296Z,20.50
2018-07-07T00:09:22.271Z,23.40
2018-07-07T00:10:22.244Z,23.90
2018-07-07T00:11:22.219Z,25.30
2018-07-07T00:12:22.193Z,23.00
2018-07-07T00:13:22.168Z,25.60
2018-07-07T00:14:22.142Z,22.10
2018-07-07T00:15:22.122Z,17.20
2018-07-07T00:16:22.093Z,26.10
2018-07-07T00:17:22.064Z,21.60
2018-07-07T00:18:22.038Z,22.60
2018-07-07T00:19:22.013Z,23.00
2018-07-07T00:20:21.992Z,33.90
2018-07-07T00:21:21.966Z,18.00
2018-07-07T00:22:21.948Z,23.30
2018-07-07T00:23:21.912Z,26.80
2018-07-07T00:24:21.887Z,17.80
2018-07-07T00:25:21.865Z,26.20
2018-07-07T00:26:21.834Z,19.50
2018-07-07T00:27:21.808Z,23.90
2018-07-07T00:28:21.785Z,23.00
2018-07-07T00:29:21.960Z,26.80
2018-07-07T00:30:21.735Z,20.40
2018-07-07T00:31:21.706Z,22.70
2018-07-07T00:32:21.685Z,16.30
2018-07-07T00:33:21.656Z,22.00
2018-07-07T00:34:21.632Z,21.80
2018-07-07T00:35:21.606Z,28.10
2018-07-07T00:36:21.579Z,22.10
2018-07-07T00:37:22.768Z,23.40
2018-07-07T00:38:21.528Z,25.10
2018-07-07T00:39:21.503Z,29.10
2018-07-07T00:40:21.477Z,22.00
2018-07-07T00:41:21.452Z,26.50
2018-07-07T00:42:21.428Z,21.80
2018-07-07T00:43:21.401Z,28.30
2018-07-07T00:44:21.375Z,21.30
2018-07-07T00:45:21.351Z,30.30
2018-07-07T00:46:21.326Z,28.60
2018-07-07T00:47:21.305Z,24.20
2018-07-07T00:48:21.274Z,22.80
2018-07-07T00:49:22.098Z,24.30
2018-07-07T00:50:21.221Z,24.80
2018-07-07T00:51:21.195Z,20.80
2018-07-07T00:52:21.170Z,22.20
2018-07-07T00:53:21.151Z,20.60
2018-07-07T00:54:21.146Z,29.80
2018-07-07T00:55:21.096Z,31.00
2018-07-07T00:56:21.070Z,24.10
2018-07-07T00:57:21.043Z,19.20
2018-07-07T00:58:21.016Z,23.30
2018-07-07T00:59:20.992Z,23.20
2018-07-07T01:00:20.966Z,27.60
2018-07-07T01:01:20.941Z,24.90
2018-07-07T01:02:20.915Z,25.70
2018-07-07T01:03:20.889Z,22.30
2018-07-07T01:04:20.871Z,28.00
2018-07-07T01:05:20.844Z,21.80
2018-07-07T01:06:21.019Z,24.50
2018-07-07T01:07:20.939Z,27.60
2018-07-07T01:08:20.764Z,26.70
2018-07-07T01:09:20.770Z,21.60
2018-07-07T01:10:20.712Z,23.10
2018-07-07T01:11:20.685Z,30.90
2018-07-07T01:12:20.659Z,18.60
2018-07-07T01:13:20.637Z,26.40
2018-07-07T01:14:20.612Z,23.80
2018-07-07T01:15:20.589Z,25.30
2018-07-07T01:16:20.559Z,25.20
2018-07-07T01:17:20.533Z,23.80
2018-07-07T01:18:20.512Z,23.90
2018-07-07T01:19:20.484Z,22.20
2018-07-07T01:20:20.467Z,22.10
2018-07-07T01:21:20.430Z,20.20
2018-07-07T01:22:20.405Z,23.60
2018-07-07T01:23:20.379Z,20.90
2018-07-07T01:24:20.354Z,21.40
2018-07-07T01:25:20.343Z,22.90
2018-07-07T01:26:20.305Z,23.60
2018-07-07T01:27:20.288Z,25.60
2018-07-07T01:28:20.258Z,25.80
2018-07-07T01:29:20.236Z,20.60
2018-07-07T01:30:20.351Z,27.70
2018-07-07T01:31:20.175Z,23.80
2018-07-07T01:32:20.149Z,26.50
2018-07-07T01:33:20.125Z,27.70
2018-07-07T01:34:20.103Z,24.30
2018-07-07T01:35:20.073Z,22.60
2018-07-07T01:36:20.050Z,24.00
2018-07-07T01:37:20.025Z,26.90
2018-07-07T01:38:20.003Z,22.40
2018-07-07T01:39:19.973Z,26.90
2018-07-07T01:40:19.951Z,23.90
2018-07-07T01:41:19.921Z,25.30
2018-07-07T01:42:19.896Z,20.90
2018-07-07T01:43:19.874Z,26.10
2018-07-07T01:44:19.844Z,23.70
2018-07-07T01:45:19.825Z,26.40
2018-07-07T01:46:19.794Z,23.00
2018-07-07T01:47:19.769Z,29.40
2018-07-07T01:48:19.744Z,26.30
2018-07-07T01:49:19.717Z,27.00
2018-07-07T01:50:19.690Z,23.40
2018-07-07T01:51:19.665Z,25.30
2018-07-07T01:52:19.641Z,20.90
2018-07-07T01:53:19.620Z,30.00
2018-07-07T01:54:19.592Z,24.70
2018-07-07T01:55:19.565Z,24.70
2018-07-07T01:56:19.539Z,22.00
2018-07-07T01:57:19.515Z,23.50
2018-07-07T01:58:19.487Z,22.00
2018-07-07T01:59:19.961Z,21.30
2018-07-07T02:00:19.439Z,33.20
2018-07-07T02:01:19.413Z,29.70
2018-07-07T02:02:19.389Z,19.60
2018-07-07T02:03:19.361Z,23.00
2018-07-07T02:04:19.338Z,27.10
2018-07-07T02:05:19.311Z,22.50
2018-07-07T02:06:19.285Z,25.60
2018-07-07T02:07:19.258Z,22.10
2018-07-07T02:08:19.233Z,27.70
2018-07-07T02:09:19.206Z,24.20
2018-07-07T02:10:19.186Z,25.40
2018-07-07T02:11:19.155Z,27.90
2018-07-07T02:12:19.129Z,21.90
2018-07-07T02:13:19.107Z,26.60
2018-07-07T02:14:19.081Z,28.70
2018-07-07T02:15:19.055Z,23.10
2018-07-07T02:16:19.034Z,27.00
2018-07-07T02:17:19.003Z,33.70
2018-07-07T02:18:18.977Z,28.20
2018-07-07T02:19:18.952Z,24.10
2018-07-07T02:20:18.924Z,26.80
2018-07-07T02:21:18.900Z,23.50
2018-07-07T02:22:18.875Z,26.30
2018-07-07T02:23:18.856Z,29.60
2018-07-07T02:24:18.823Z,22.60
2018-07-07T02:25:18.803Z,25.90
2018-07-07T02:26:18.776Z,23.20
2018-07-07T02:27:18.750Z,24.80
2018-07-07T02:28:18.725Z,29.30
2018-07-07T02:29:18.847Z,27.50
2018-07-07T02:30:18.672Z,22.00
2018-07-07T02:31:18.648Z,22.90
2018-07-07T02:32:18.623Z,22.40
2018-07-07T02:33:18.597Z,26.20
2018-07-07T02:34:18.575Z,28.00
2018-07-07T02:35:18.695Z,21.80
2018-07-07T02:36:18.519Z,21.30
2018-07-07T02:37:18.497Z,26.70
2018-07-07T02:38:18.477Z,26.80
2018-07-07T02:39:18.446Z,27.80
2018-07-07T02:40:18.419Z,27.10
2018-07-07T02:41:18.390Z,25.30
2018-07-07T02:42:18.365Z,27.30
2018-07-07T02:43:18.339Z,25.00
2018-07-07T02:44:18.315Z,27.60
2018-07-07T02:45:18.290Z,27.30
2018-07-07T02:46:18.404Z,23.80
2018-07-07T02:47:18.238Z,25.70
2018-07-07T02:48:18.213Z,28.00
2018-07-07T02:49:18.190Z,21.90
2018-07-07T02:50:18.164Z,26.10
2018-07-07T02:51:18.136Z,30.50
2018-07-07T02:52:18.112Z,23.40
2018-07-07T02:53:18.084Z,30.40
2018-07-07T02:54:18.061Z,29.00
2018-07-07T02:55:18.033Z,34.20
2018-07-07T02:56:18.008Z,24.40
2018-07-07T02:57:18.187Z,26.90
2018-07-07T02:58:17.959Z,27.50
2018-07-07T02:59:17.933Z,29.00
2018-07-07T03:00:17.914Z,23.50
2018-07-07T03:01:17.896Z,28.10
2018-07-07T03:02:17.855Z,28.00
2018-07-07T03:03:17.894Z,28.20
2018-07-07T03:04:17.842Z,26.80
2018-07-07T03:05:17.781Z,30.30
2018-07-07T03:06:17.755Z,28.40
2018-07-07T03:07:17.729Z,27.30
2018-07-07T03:08:17.705Z,26.50
2018-07-07T03:09:17.681Z,24.80
2018-07-07T03:10:17.655Z,24.50
2018-07-07T03:11:17.628Z,23.80
2018-07-07T03:12:17.602Z,23.80
2018-07-07T03:13:17.579Z,24.60
2018-07-07T03:14:17.550Z,22.40
2018-07-07T03:15:17.525Z,27.00
2018-07-07T03:16:17.498Z,27.50
2018-07-07T03:17:17.475Z,31.90
2018-07-07T03:18:17.449Z,35.90
2018-07-07T03:19:17.424Z,26.90
2018-07-07T03:20:17.401Z,32.10
2018-07-07T03:21:17.371Z,25.30
2018-07-07T03:22:17.348Z,29.60
2018-07-07T03:23:17.320Z,23.80
2018-07-07T03:24:17.294Z,33.10
2018-07-07T03:25:17.269Z,33.10
2018-07-07T03:26:17.244Z,33.30
2018-07-07T03:27:17.218Z,25.00
2018-07-07T03:28:17.193Z,24.00
2018-07-07T03:29:17.195Z,26.00
2018-07-07T03:30:17.149Z,26.20
2018-07-07T03:31:17.118Z,27.50
2018-07-07T03:32:17.096Z,23.90
2018-07-07T03:33:17.069Z,25.10
2018-07-07T03:34:17.042Z,33.80
2018-07-07T03:35:17.015Z,22.30
2018-07-07T03:36:16.989Z,28.10
2018-07-07T03:37:16.967Z,26.40
2018-07-07T03:38:16.943Z,22.80
2018-07-07T03:39:16.915Z,20.40
2018-07-07T03:40:16.889Z,24.40
2018-07-07T03:41:16.865Z,33.40
2018-07-07T03:42:16.899Z,25.20
2018-07-07T03:43:16.813Z,21.70
2018-07-07T03:44:16.789Z,22.30
2018-07-07T03:45:16.761Z,27.30
2018-07-07T03:46:16.743Z,24.60
2018-07-07T03:47:16.709Z,26.70
2018-07-07T03:48:16.685Z,19.00
2018-07-07T03:49:16.687Z,27.30
2018-07-07T03:50:16.635Z,31.10
2018-07-07T03:51:16.611Z,25.80
2018-07-07T03:52:16.586Z,25.80
2018-07-07T03:53:16.558Z,22.00
2018-07-07T03:54:16.534Z,23.20
2018-07-07T03:55:16.511Z,23.70
2018-07-07T03:56:16.482Z,23.70
2018-07-07T03:57:16.458Z,26.40
2018-07-07T03:58:16.434Z,21.70
2018-07-07T03:59:16.407Z,22.10
2018-07-07T04:00:16.382Z,22.80
2018-07-07T04:01:16.358Z,19.30
2018-07-07T04:02:16.330Z,28.90
2018-07-07T04:03:16.304Z,26.80
2018-07-07T04:04:16.279Z,20.00
2018-07-07T04:05:16.257Z,21.00
2018-07-07T04:06:16.231Z,21.70
2018-07-07T04:07:16.246Z,25.00
2018-07-07T04:08:16.181Z,22.70
2018-07-07T04:09:16.158Z,21.40
2018-07-07T04:10:16.129Z,22.90
2018-07-07T04:11:16.103Z,26.60
2018-07-07T04:12:16.080Z,21.90
2018-07-07T04:13:16.053Z,25.50
2018-07-07T04:14:16.179Z,21.40
2018-07-07T04:15:16.007Z,23.00
2018-07-07T04:16:15.981Z,24.10
2018-07-07T04:17:15.959Z,24.80
2018-07-07T04:18:15.932Z,19.30
2018-07-07T04:19:15.908Z,18.60
2018-07-07T04:20:15.888Z,15.30
2018-07-07T04:21:15.857Z,22.10
2018-07-07T04:22:15.834Z,22.60
2018-07-07T04:23:15.809Z,20.50
2018-07-07T04:24:15.784Z,22.00
2018-07-07T04:25:15.763Z,22.20
2018-07-07T04:26:15.738Z,19.90
2018-07-07T04:27:15.712Z,20.70
2018-07-07T04:28:15.691Z,20.90
2018-07-07T04:29:15.666Z,24.40
2018-07-07T04:30:15.644Z,18.00
2018-07-07T04:31:15.621Z,24.90
2018-07-07T04:32:15.594Z,20.40
2018-07-07T04:33:15.571Z,20.60
2018-07-07T04:34:15.546Z,25.00
2018-07-07T04:35:15.522Z,18.80
2018-07-07T04:36:15.499Z,19.00
2018-07-07T04:37:15.477Z,19.90
2018-07-07T04:38:15.505Z,20.20
2018-07-07T04:39:15.430Z,20.70
2018-07-07T04:40:15.405Z,18.30
2018-07-07T04:41:15.382Z,20.70
2018-07-07T04:42:15.359Z,23.30
2018-07-07T04:43:15.333Z,22.50
2018-07-07T04:44:15.315Z,18.40
2018-07-07T04:45:15.293Z,19.00
2018-07-07T04:46:15.267Z,19.90
2018-07-07T04:47:15.245Z,17.40
2018-07-07T04:48:15.219Z,17.80
2018-07-07T04:49:15.198Z,15.00
2018-07-07T04:50:15.176Z,18.00
2018-07-07T04:51:15.159Z,22.90
2018-07-07T04:52:15.134Z,19.30
2018-07-07T04:53:15.106Z,17.90
2018-07-07T04:54:15.082Z,23.30
2018-07-07T04:55:15.059Z,21.20
2018-07-07T04:56:15.038Z,22.70
2018-07-07T04:57:15.016Z,22.80
2018-07-07T04:58:14.992Z,20.50
2018-07-07T04:59:14.968Z,18.20
2018-07-07T05:00:14.947Z,15.20
2018-07-07T05:01:15.075Z,20.90
2018-07-07T05:02:14.905Z,16.70
2018-07-07T05:03:14.879Z,18.60
2018-07-07T05:04:14.860Z,24.30
2018-07-07T05:05:14.833Z,21.00
2018-07-07T05:06:14.815Z,20.00
2018-07-07T05:07:14.788Z,21.70
2018-07-07T05:08:14.765Z,19.40
2018-07-07T05:09:14.750Z,16.90
2018-07-07T05:10:14.725Z,20.80
2018-07-07T05:11:14.705Z,20.30
2018-07-07T05:12:14.682Z,15.50
2018-07-07T05:13:14.656Z,22.50
2018-07-07T05:14:14.633Z,17.30
2018-07-07T05:15:14.816Z,18.10
2018-07-07T05:16:14.790Z,20.90
2018-07-07T05:17:14.589Z,20.00
2018-07-07T05:18:14.545Z,16.30
2018-07-07T05:19:14.572Z,20.50
2018-07-07T05:20:14.501Z,16.50
2018-07-07T05:21:14.481Z,14.00
2018-07-07T05:22:14.460Z,18.10
2018-07-07T05:23:14.437Z,17.70
2018-07-07T05:24:14.414Z,19.30
2018-07-07T05:25:14.391Z,20.30
2018-07-07T05:26:14.369Z,17.60
2018-07-07T05:27:14.349Z,20.00
2018-07-07T05:28:14.327Z,12.70
2018-07-07T05:29:14.306Z,18.10
2018-07-07T05:30:14.288Z,20.90
2018-07-07T05:31:14.265Z,19.50
2018-07-07T05:32:14.244Z,16.90
2018-07-07T05:33:14.224Z,17.40
2018-07-07T05:34:14.201Z,17.20
2018-07-07T05:35:14.187Z,18.60
2018-07-07T05:36:14.162Z,21.70
2018-07-07T05:37:14.157Z,25.40
2018-07-07T05:38:14.113Z,19.20
2018-07-07T05:39:14.091Z,19.10
2018-07-07T05:40:14.070Z,18.20
2018-07-07T05:41:14.052Z,18.50
2018-07-07T05:42:14.031Z,19.00
2018-07-07T05:43:14.015Z,17.30
2018-07-07T05:44:13.989Z,15.00
2018-07-07T05:45:13.964Z,21.50
2018-07-07T05:46:13.945Z,18.10
2018-07-07T05:47:13.923Z,18.60
2018-07-07T05:48:13.903Z,20.30
2018-07-07T05:49:13.891Z,18.10
2018-07-07T05:50:13.860Z,15.70
2018-07-07T05:51:13.839Z,16.20
2018-07-07T05:52:13.820Z,16.80
2018-07-07T05:53:13.801Z,18.80
2018-07-07T05:54:13.783Z,19.60
2018-07-07T05:55:13.759Z,16.00
2018-07-07T05:56:13.943Z,12.90
2018-07-07T05:57:13.921Z,16.00
2018-07-07T05:58:13.695Z,19.60
2018-07-07T05:59:13.675Z,19.40
2018-07-07T06:00:13.855Z,21.70
2018-07-07T06:01:55.989Z,17.30
2018-07-07T06:02:55.769Z,21.00
2018-07-07T06:03:55.748Z,17.70
2018-07-07T06:04:55.727Z,16.60
2018-07-07T06:05:55.708Z,20.00
2018-07-07T06:06:55.686Z,13.90
2018-07-07T06:07:55.668Z,17.20
2018-07-07T06:08:55.648Z,16.50
2018-07-07T06:09:55.629Z,20.60
2018-07-07T06:10:55.603Z,13.70
2018-07-07T06:11:55.582Z,18.60
2018-07-07T06:12:55.565Z,17.50
2018-07-07T06:13:55.543Z,18.20
2018-07-07T06:14:55.525Z,19.00
2018-07-07T06:15:55.503Z,20.60
2018-07-07T06:16:55.483Z,16.70
2018-07-07T06:17:55.464Z,16.80
2018-07-07T06:18:55.443Z,16.90
2018-07-07T06:19:55.423Z,18.10
2018-07-07T06:20:55.406Z,20.30
2018-07-07T06:21:55.380Z,17.20
2018-07-07T06:22:55.359Z,15.80
2018-07-07T06:23:55.340Z,18.10
2018-07-07T06:24:55.321Z,18.00
2018-07-07T06:25:55.302Z,16.20
2018-07-07T06:26:55.289Z,19.40
2018-07-07T06:27:55.261Z,14.60
2018-07-07T06:28:55.241Z,17.20
2018-07-07T06:29:55.221Z,18.60
2018-07-07T06:30:55.201Z,16.30
2018-07-07T06:31:55.185Z,16.90
2018-07-07T06:32:55.161Z,18.40
2018-07-07T06:33:55.344Z,20.40
2018-07-07T06:34:55.125Z,15.30
2018-07-07T06:35:55.101Z,17.00
2018-07-07T06:36:55.290Z,16.20
2018-07-07T06:38:37.419Z,19.00
2018-07-07T06:40:19.557Z,17.40
2018-07-07T06:41:19.335Z,18.00
2018-07-07T06:42:19.314Z,14.10
2018-07-07T06:43:19.297Z,17.90
2018-07-07T06:44:19.278Z,18.90
2018-07-07T06:45:19.259Z,15.50
2018-07-07T06:46:19.441Z,16.30
2018-07-07T06:47:19.218Z,16.40
2018-07-07T06:48:19.202Z,22.00
2018-07-07T06:49:19.382Z,18.70
2018-07-07T06:50:19.161Z,16.90
2018-07-07T06:51:19.145Z,19.20
2018-07-07T06:52:19.124Z,10.90
2018-07-07T06:53:19.111Z,18.30
2018-07-07T06:54:19.087Z,13.60
2018-07-07T06:55:19.069Z,15.50
2018-07-07T06:56:19.057Z,15.50
2018-07-07T06:57:19.034Z,15.80
2018-07-07T06:58:19.214Z,14.40
2018-07-07T06:59:18.999Z,13.80
2018-07-07T07:00:18.975Z,13.30
2018-07-07T07:01:18.956Z,14.60
2018-07-07T07:02:18.938Z,14.50
2018-07-07T07:03:18.970Z,13.90
2018-07-07T07:04:18.904Z,13.90
2018-07-07T07:05:18.887Z,16.80
2018-07-07T07:06:18.872Z,11.50
2018-07-07T07:07:18.850Z,13.40
2018-07-07T07:08:18.832Z,18.30
2018-07-07T07:09:18.815Z,14.80
2018-07-07T07:10:18.795Z,12.90
2018-07-07T07:11:18.777Z,15.20
2018-07-07T07:12:18.761Z,13.30
2018-07-07T07:13:18.742Z,15.90
2018-07-07T07:14:18.728Z,19.10
2018-07-07T07:15:18.712Z,16.60
2018-07-07T07:16:18.694Z,13.90
2018-07-07T07:17:18.674Z,18.80
2018-07-07T07:18:18.658Z,16.00
2018-07-07T07:19:18.636Z,17.70
2018-07-07T07:20:18.619Z,14.10
2018-07-07T07:21:18.600Z,14.80
2018-07-07T07:22:18.580Z,18.30
2018-07-07T07:23:18.569Z,16.80
2018-07-07T07:24:18.547Z,17.50
2018-07-07T07:25:18.529Z,14.00
2018-07-07T07:26:18.557Z,18.00
2018-07-07T07:27:18.495Z,14.40
2018-07-07T07:28:18.481Z,18.00
2018-07-07T07:29:18.458Z,16.20
2018-07-07T07:30:18.642Z,13.50
2018-07-07T07:31:18.428Z,14.20
2018-07-07T07:32:18.405Z,15.70
2018-07-07T07:33:18.386Z,11.50
2018-07-07T07:34:18.571Z,18.50
2018-07-07T07:35:18.390Z,18.90
2018-07-07T07:36:18.336Z,11.80
2018-07-07T07:37:18.526Z,11.10
2018-07-07T07:38:18.502Z,11.80
2018-07-07T07:39:21.106Z,12.80
2018-07-07T07:44:49.234Z,13.40
2018-07-07T07:45:49.219Z,15.20
2018-07-07T07:46:50.413Z,15.00
2018-07-07T07:47:48.987Z,9.90
2018-07-07T07:48:48.968Z,17.30
2018-07-07T07:49:48.950Z,14.80
2018-07-07T07:50:48.934Z,16.70
2018-07-07T07:51:48.919Z,16.90
2018-07-07T07:52:48.983Z,13.80
2018-07-07T07:53:48.882Z,10.60
2018-07-07T07:54:48.864Z,10.70
2018-07-07T07:55:48.854Z,16.40
2018-07-07T07:56:48.884Z,10.90
2018-07-07T07:57:48.816Z,11.10
2018-07-07T07:58:48.800Z,8.00
2018-07-07T07:59:48.784Z,14.30
2018-07-07T08:00:48.770Z,12.60
2018-07-07T08:01:48.751Z,13.80
2018-07-07T08:02:48.734Z,11.70
2018-07-07T08:03:48.717Z,17.60
2018-07-07T08:04:48.751Z,10.60
2018-07-07T08:05:48.684Z,16.10
2018-07-07T08:06:48.667Z,11.60
2018-07-07T08:07:48.663Z,9.00
2018-07-07T08:08:48.643Z,11.20
2018-07-07T08:09:48.826Z,12.70
2018-07-07T08:10:48.604Z,13.00
2018-07-07T08:11:48.587Z,16.50
2018-07-07T08:12:48.568Z,12.70
2018-07-07T08:13:48.758Z,12.50
2018-07-07T08:14:48.538Z,12.10
2018-07-07T08:15:48.726Z,12.90
2018-07-07T08:16:48.505Z,10.50
2018-07-07T08:17:48.693Z,8.80
2018-07-07T08:18:49.080Z,13.60
2018-07-07T08:19:48.660Z,14.20
2018-07-07T08:20:48.445Z,14.40
2018-07-07T08:21:48.424Z,17.40
2018-07-07T08:22:48.434Z,14.40
2018-07-07T08:23:48.390Z,10.50
2018-07-07T08:24:48.375Z,11.00
2018-07-07T08:25:48.560Z,11.30
2018-07-07T08:26:48.342Z,10.60
2018-07-07T08:27:48.533Z,11.00
2018-07-07T08:28:48.316Z,9.40
2018-07-07T08:29:48.295Z,10.90
2018-07-07T08:30:48.280Z,11.80
2018-07-07T08:31:48.474Z,8.20
2018-07-07T08:32:48.452Z,9.60
2018-07-07T08:33:48.242Z,13.90
2018-07-07T08:34:48.218Z,16.00
2018-07-07T08:35:48.200Z,11.40
2018-07-07T08:36:48.185Z,16.70
2018-07-07T08:37:48.177Z,10.40
2018-07-07T08:38:48.153Z,11.30
2018-07-07T08:39:48.139Z,15.50
2018-07-07T08:40:48.129Z,10.60
2018-07-07T08:41:48.119Z,12.70
2018-07-07T08:42:48.295Z,11.30
2018-07-07T08:43:48.278Z,14.80
2018-07-07T08:44:48.428Z,13.40
2018-07-07T08:45:48.250Z,8.20
2018-07-07T08:46:48.036Z,13.80
2018-07-07T08:47:48.218Z,11.40
2018-07-07T08:48:48.005Z,10.90
2018-07-07T08:49:48.186Z,14.00
2018-07-07T08:50:48.180Z,13.40
2018-07-07T08:51:48.155Z,12.30
2018-07-07T08:52:47.943Z,11.60
2018-07-07T08:53:47.922Z,11.60
2018-07-07T08:54:47.906Z,9.30
2018-07-07T08:55:47.898Z,11.00
2018-07-07T08:56:47.881Z,10.10
2018-07-07T08:57:47.861Z,11.20
2018-07-07T08:58:47.847Z,13.20
2018-07-07T08:59:47.834Z,9.10
2018-07-07T09:00:47.816Z,13.70
2018-07-07T09:01:48.003Z,10.50
2018-07-07T09:02:47.789Z,13.00
2018-07-07T09:03:47.777Z,15.20
2018-07-07T09:04:47.958Z,11.60
2018-07-07T09:05:47.944Z,11.70
2018-07-07T09:06:47.928Z,8.80
2018-07-07T09:07:47.970Z,11.10
2018-07-07T09:08:47.701Z,12.10
2018-07-07T09:09:47.683Z,16.20
2018-07-07T09:10:47.667Z,13.80
2018-07-07T09:11:47.853Z,17.40
2018-07-07T09:12:47.635Z,14.40
2018-07-07T09:13:47.621Z,10.70
2018-07-07T09:14:47.605Z,10.40
2018-07-07T09:15:47.592Z,13.60
2018-07-07T09:16:47.578Z,13.40
2018-07-07T09:17:47.563Z,18.00
2018-07-07T09:18:47.577Z,19.60
2018-07-07T09:19:47.561Z,14.80
2018-07-07T09:20:47.667Z,11.20
2018-07-07T09:21:47.501Z,9.90
2018-07-07T09:22:47.487Z,9.50
2018-07-07T09:23:47.470Z,12.40
2018-07-07T09:24:47.455Z,11.40
2018-07-07T09:25:47.443Z,11.50
2018-07-07T09:26:47.425Z,10.60
2018-07-07T09:27:47.413Z,7.30
2018-07-07T09:28:47.399Z,12.60
2018-07-07T09:30:29.748Z,13.80
2018-07-07T09:31:29.526Z,14.60
2018-07-07T09:32:29.510Z,10.00
2018-07-07T09:33:29.499Z,16.50
2018-07-07T09:34:29.484Z,17.10
2018-07-07T09:35:29.468Z,10.90
2018-07-07T09:36:29.457Z,10.70
2018-07-07T09:37:29.439Z,13.50
2018-07-07T09:38:29.424Z,14.80
2018-07-07T09:39:29.409Z,15.20
2018-07-07T09:40:29.393Z,17.00
2018-07-07T09:41:29.381Z,10.20
2018-07-07T09:42:29.365Z,14.40
2018-07-07T09:43:29.350Z,10.90
2018-07-07T09:44:29.336Z,11.00
2018-07-07T09:45:29.320Z,10.10
2018-07-07T09:46:29.305Z,22.80
2018-07-07T09:47:29.491Z,12.20
2018-07-07T09:48:29.275Z,17.30
2018-07-07T09:49:29.258Z,13.20
2018-07-07T09:50:29.247Z,14.80
2018-07-07T09:51:29.227Z,18.30
2018-07-07T09:52:29.212Z,15.40
2018-07-07T09:53:29.201Z,18.00
2018-07-07T09:54:29.185Z,17.70
2018-07-07T09:55:29.170Z,21.90
2018-07-07T09:56:29.159Z,17.80
2018-07-07T09:57:29.138Z,16.30
2018-07-07T09:58:29.123Z,18.40
2018-07-07T09:59:29.107Z,17.00
2018-07-07T10:00:29.095Z,13.90
2018-07-07T10:01:29.078Z,15.00
2018-07-07T10:02:29.063Z,12.90
2018-07-07T10:03:29.046Z,15.40
2018-07-07T10:04:29.031Z,11.30
2018-07-07T10:05:29.019Z,12.30
2018-07-07T10:06:29.004Z,10.20
2018-07-07T10:07:29.031Z,18.10
2018-07-07T10:08:28.974Z,14.50
2018-07-07T10:09:28.960Z,12.80
2018-07-07T10:10:28.943Z,10.00
2018-07-07T10:11:28.927Z,11.70
2018-07-07T10:12:28.911Z,18.50
2018-07-07T10:13:28.945Z,10.60
2018-07-07T10:14:28.886Z,10.60
2018-07-07T10:15:28.869Z,11.50
2018-07-07T10:16:28.855Z,12.80
2018-07-07T10:17:28.839Z,13.00
2018-07-07T10:18:29.028Z,12.10
2018-07-07T10:19:28.809Z,14.10
2018-07-07T10:20:28.796Z,12.60
2018-07-07T10:21:28.780Z,11.30
2018-07-07T10:22:28.761Z,11.80
2018-07-07T10:23:28.745Z,13.40
2018-07-07T10:24:28.730Z,18.70
2018-07-07T10:25:28.720Z,14.30
2018-07-07T10:26:28.702Z,35.70
2018-07-07T10:27:28.686Z,21.20
2018-07-07T10:28:28.670Z,13.30
2018-07-07T10:29:28.654Z,20.40
2018-07-07T10:30:28.638Z,16.20
2018-07-07T10:31:28.658Z,13.80
2018-07-07T10:32:28.607Z,14.60
2018-07-07T10:33:28.594Z,16.70
2018-07-07T10:34:28.586Z,10.70
2018-07-07T10:35:28.566Z,24.00
2018-07-07T10:36:28.553Z,12.50
2018-07-07T10:37:28.548Z,11.60
2018-07-07T10:38:28.518Z,12.40
2018-07-07T10:39:28.504Z,16.00
2018-07-07T10:40:28.488Z,40.50
2018-07-07T10:41:28.487Z,12.40
2018-07-07T10:42:28.663Z,11.90
2018-07-07T10:43:28.447Z,19.80
2018-07-07T10:44:28.433Z,14.70
2018-07-07T10:45:28.457Z,17.50
2018-07-07T10:46:28.401Z,15.00
2018-07-07T10:47:28.500Z,13.00
2018-07-07T10:48:28.371Z,12.60
2018-07-07T10:49:28.358Z,13.40
2018-07-07T10:50:28.342Z,7.20
2018-07-07T10:51:28.326Z,26.40
2018-07-07T10:52:28.311Z,22.70
2018-07-07T10:53:28.502Z,14.20
2018-07-07T10:54:28.286Z,13.90
2018-07-07T10:55:28.292Z,13.40
2018-07-07T10:56:28.255Z,14.60
2018-07-07T10:57:28.239Z,13.40
2018-07-07T10:58:28.225Z,14.60
2018-07-07T10:59:28.210Z,8.90
2018-07-07T11:00:28.197Z,10.00
2018-07-07T11:01:28.184Z,10.30
2018-07-07T11:02:28.222Z,12.50
2018-07-07T11:03:28.158Z,11.60
2018-07-07T11:04:28.147Z,13.80
2018-07-07T11:05:28.131Z,14.50
2018-07-07T11:06:28.113Z,14.50
2018-07-07T11:07:28.099Z,17.30
2018-07-07T11:08:28.085Z,13.20
2018-07-07T11:09:28.073Z,20.80
2018-07-07T11:10:28.258Z,16.50
2018-07-07T11:11:28.243Z,14.60
2018-07-07T11:12:28.230Z,9.80
2018-07-07T11:13:28.016Z,7.80
2018-07-07T11:14:28.009Z,9.80
2018-07-07T11:15:27.995Z,13.80
2018-07-07T11:16:27.974Z,9.60
2018-07-07T11:17:27.959Z,12.20
2018-07-07T11:18:27.947Z,12.40
2018-07-07T11:19:27.931Z,12.80
2018-07-07T11:20:27.920Z,9.60
2018-07-07T11:21:27.910Z,14.30
2018-07-07T11:22:28.099Z,13.10
2018-07-07T11:23:27.876Z,11.90
2018-07-07T11:24:27.863Z,11.80
2018-07-07T11:25:27.857Z,11.00
2018-07-07T11:26:27.838Z,8.90
2018-07-07T11:27:27.823Z,15.90
2018-07-07T11:28:27.811Z,11.20
2018-07-07T11:29:27.794Z,14.90
2018-07-07T11:30:27.781Z,20.70
2018-07-07T11:31:27.766Z,12.00
2018-07-07T11:32:27.755Z,12.00
2018-07-07T11:33:27.741Z,14.70
2018-07-07T11:34:27.728Z,7.10
2018-07-07T11:35:27.714Z,13.70
2018-07-07T11:36:27.779Z,9.70
2018-07-07T11:37:27.687Z,14.60
2018-07-07T11:38:27.674Z,15.60
2018-07-07T11:39:27.662Z,11.10
2018-07-07T11:40:27.644Z,7.90
2018-07-07T11:41:27.631Z,10.40
2018-07-07T11:42:27.619Z,9.40
2018-07-07T11:43:27.602Z,12.40
2018-07-07T11:44:27.589Z,12.70
2018-07-07T11:45:27.576Z,11.70
2018-07-07T11:46:27.564Z,10.50
2018-07-07T11:47:27.550Z,17.00
2018-07-07T11:48:27.537Z,14.50
2018-07-07T11:49:27.521Z,15.10
2018-07-07T11:50:27.517Z,13.30
2018-07-07T11:51:27.499Z,14.80
2018-07-07T11:52:27.482Z,12.40
2018-07-07T11:53:27.465Z,13.90
2018-07-07T11:54:27.453Z,17.90
2018-07-07T11:55:27.438Z,10.90
2018-07-07T11:56:27.428Z,12.60
2018-07-07T11:57:27.417Z,14.60
2018-07-07T11:58:27.400Z,11.00
2018-07-07T11:59:27.387Z,9.60
2018-07-07T12:00:27.372Z,9.60
2018-07-07T12:01:27.363Z,17.70
2018-07-07T12:02:27.343Z,11.10
2018-07-07T12:03:27.330Z,11.80
2018-07-07T12:04:27.343Z,9.60
2018-07-07T12:05:27.316Z,10.80
2018-07-07T12:06:27.298Z,9.80
2018-07-07T12:07:27.274Z,11.50
2018-07-07T12:08:27.290Z,9.20
2018-07-07T12:09:27.254Z,11.80
2018-07-07T12:10:27.243Z,16.10
2018-07-07T12:11:27.332Z,15.20
2018-07-07T12:12:27.206Z,12.50
2018-07-07T12:13:27.197Z,7.20
2018-07-07T12:14:27.177Z,12.00
2018-07-07T12:15:27.177Z,16.60
2018-07-07T12:16:27.150Z,10.20
2018-07-07T12:17:27.193Z,14.00
2018-07-07T12:18:27.126Z,14.00
2018-07-07T12:19:27.119Z,8.90
2018-07-07T12:20:27.097Z,12.10
2018-07-07T12:21:27.084Z,16.60
2018-07-07T12:22:27.068Z,11.00
2018-07-07T12:23:27.054Z,12.30
2018-07-07T12:24:27.044Z,13.90
2018-07-07T12:25:27.037Z,13.20
2018-07-07T12:26:27.013Z,15.70
2018-07-07T12:27:27.053Z,11.90
2018-07-07T12:28:26.986Z,10.10
2018-07-07T12:29:26.974Z,14.20
2018-07-07T12:30:26.961Z,11.20
2018-07-07T12:31:27.027Z,13.40
2018-07-07T12:32:26.936Z,11.80
2018-07-07T12:33:26.916Z,10.60
2018-07-07T12:34:26.906Z,8.80
2018-07-07T12:35:26.908Z,13.90
2018-07-07T12:36:26.877Z,7.90
2018-07-07T12:37:26.864Z,16.40
2018-07-07T12:38:26.848Z,9.70
2018-07-07T12:39:26.835Z,13.50
2018-07-07T12:40:26.875Z,12.30
2018-07-07T12:41:26.807Z,11.20
2018-07-07T12:42:26.794Z,14.30
2018-07-07T12:43:26.826Z,13.20
2018-07-07T12:44:26.776Z,13.90
2018-07-07T12:45:26.750Z,14.70
2018-07-07T12:46:26.742Z,13.80
2018-07-07T12:47:26.723Z,10.70
2018-07-07T12:48:26.709Z,12.40
2018-07-07T12:49:26.694Z,10.30
2018-07-07T12:50:26.679Z,13.70
2018-07-07T12:51:26.664Z,7.90
2018-07-07T12:52:26.651Z,11.60
2018-07-07T12:53:26.641Z,13.30
2018-07-07T12:54:26.626Z,14.10
2018-07-07T12:55:26.612Z,7.90
2018-07-07T12:56:27.102Z,10.50
2018-07-07T12:58:08.948Z,13.00
2018-07-07T12:59:08.730Z,10.40
2018-07-07T13:00:08.714Z,12.30
2018-07-07T13:01:08.711Z,13.80